sensor_id;sensor_type;location;lat;lon;timestamp;P1;durP1;ratioP1;P2;durP2;ratioP2
8952;SDS011;4511;50.890;8.054;2023-08-12T00:00:46;6.50;;;4.87;;
8952;SDS011;4511;50.890;8.054;2023-08-12T00:03:13;8.93;;;5.20;;
8952;SDS011;4511;50.890;8.054;2023-08-12T00:05:40;6.33;;;5.73;;
8952;SDS011;4511;50.890;8.054;2023-08-12T00:08:08;7.30;;;5.80;;
8952;SDS011;4511;50.890;8.054;2023-08-12T00:10:35;5.60;;;5.10;;
8952;SDS011;4511;50.890;8.054;2023-08-12T00:13:03;5.23;;;4.70;;
8952;SDS011;4511;50.890;8.054;2023-08-12T00:15:30;6.50;;;5.27;;
8952;SDS011;4511;50.890;8.054;2023-08-12T00:17:57;5.57;;;5.10;;
8952;SDS011;4511;50.890;8.054;2023-08-12T00:20:23;8.83;;;5.23;;
8952;SDS011;4511;50.890;8.054;2023-08-12T00:22:50;9.00;;;5.57;;
8952;SDS011;4511;50.890;8.054;2023-08-12T00:25:17;9.70;;;5.63;;
8952;SDS011;4511;50.890;8.054;2023-08-12T00:27:44;9.03;;;5.43;;
8952;SDS011;4511;50.890;8.054;2023-08-12T00:30:12;9.07;;;5.60;;
8952;SDS011;4511;50.890;8.054;2023-08-12T00:32:39;5.50;;;4.97;;
8952;SDS011;4511;50.890;8.054;2023-08-12T00:35:08;7.23;;;5.07;;
8952;SDS011;4511;50.890;8.054;2023-08-12T00:37:35;6.20;;;5.13;;
8952;SDS011;4511;50.890;8.054;2023-08-12T00:40:02;6.57;;;5.33;;
8952;SDS011;4511;50.890;8.054;2023-08-12T00:42:29;7.80;;;5.17;;
8952;SDS011;4511;50.890;8.054;2023-08-12T00:44:56;7.07;;;5.27;;
8952;SDS011;4511;50.890;8.054;2023-08-12T00:47:25;9.00;;;5.40;;
8952;SDS011;4511;50.890;8.054;2023-08-12T00:49:52;7.60;;;5.17;;
8952;SDS011;4511;50.890;8.054;2023-08-12T00:52:21;7.43;;;5.37;;
8952;SDS011;4511;50.890;8.054;2023-08-12T00:54:48;9.30;;;6.00;;
8952;SDS011;4511;50.890;8.054;2023-08-12T00:57:15;6.73;;;6.03;;
8952;SDS011;4511;50.890;8.054;2023-08-12T00:59:41;6.13;;;5.63;;
8952;SDS011;4511;50.890;8.054;2023-08-12T01:02:10;9.20;;;6.33;;
8952;SDS011;4511;50.890;8.054;2023-08-12T01:04:40;8.40;;;6.23;;
8952;SDS011;4511;50.890;8.054;2023-08-12T01:07:06;8.90;;;6.83;;
8952;SDS011;4511;50.890;8.054;2023-08-12T01:09:33;7.00;;;6.23;;
8952;SDS011;4511;50.890;8.054;2023-08-12T01:12:01;7.03;;;6.27;;
8952;SDS011;4511;50.890;8.054;2023-08-12T01:14:34;9.90;;;6.90;;
8952;SDS011;4511;50.890;8.054;2023-08-12T01:17:06;6.87;;;6.27;;
8952;SDS011;4511;50.890;8.054;2023-08-12T01:19:35;7.53;;;6.83;;
8952;SDS011;4511;50.890;8.054;2023-08-12T01:22:10;9.27;;;7.00;;
8952;SDS011;4511;50.890;8.054;2023-08-12T01:24:39;7.60;;;6.80;;
8952;SDS011;4511;50.890;8.054;2023-08-12T01:27:08;8.37;;;6.67;;
8952;SDS011;4511;50.890;8.054;2023-08-12T01:29:38;8.73;;;6.50;;
8952;SDS011;4511;50.890;8.054;2023-08-12T01:32:08;8.67;;;6.10;;
8952;SDS011;4511;50.890;8.054;2023-08-12T01:34:43;10.37;;;7.50;;
8952;SDS011;4511;50.890;8.054;2023-08-12T01:37:14;6.83;;;6.27;;
8952;SDS011;4511;50.890;8.054;2023-08-12T01:39:49;9.60;;;6.53;;
8952;SDS011;4511;50.890;8.054;2023-08-12T01:42:18;8.73;;;6.60;;
8952;SDS011;4511;50.890;8.054;2023-08-12T01:44:45;8.10;;;6.97;;
8952;SDS011;4511;50.890;8.054;2023-08-12T01:47:12;7.10;;;6.40;;
8952;SDS011;4511;50.890;8.054;2023-08-12T01:49:39;11.63;;;7.00;;
8952;SDS011;4511;50.890;8.054;2023-08-12T01:52:06;8.70;;;7.13;;
8952;SDS011;4511;50.890;8.054;2023-08-12T01:54:33;13.77;;;8.70;;
8952;SDS011;4511;50.890;8.054;2023-08-12T01:57:02;12.63;;;8.73;;
8952;SDS011;4511;50.890;8.054;2023-08-12T01:59:30;9.67;;;8.27;;
8952;SDS011;4511;50.890;8.054;2023-08-12T02:01:57;11.33;;;8.43;;
8952;SDS011;4511;50.890;8.054;2023-08-12T02:04:24;11.17;;;8.67;;
8952;SDS011;4511;50.890;8.054;2023-08-12T02:06:52;16.10;;;8.57;;
8952;SDS011;4511;50.890;8.054;2023-08-12T02:09:19;8.83;;;7.90;;
8952;SDS011;4511;50.890;8.054;2023-08-12T02:11:45;8.47;;;7.67;;
8952;SDS011;4511;50.890;8.054;2023-08-12T02:14:14;11.03;;;8.10;;
8952;SDS011;4511;50.890;8.054;2023-08-12T02:16:41;10.93;;;9.80;;
8952;SDS011;4511;50.890;8.054;2023-08-12T02:19:07;12.60;;;8.97;;
8952;SDS011;4511;50.890;8.054;2023-08-12T02:21:34;14.77;;;9.53;;
8952;SDS011;4511;50.890;8.054;2023-08-12T02:24:01;10.63;;;9.00;;
8952;SDS011;4511;50.890;8.054;2023-08-12T02:26:28;14.17;;;8.73;;
8952;SDS011;4511;50.890;8.054;2023-08-12T02:28:55;10.97;;;8.47;;
8952;SDS011;4511;50.890;8.054;2023-08-12T02:31:23;9.80;;;8.80;;
8952;SDS011;4511;50.890;8.054;2023-08-12T02:33:51;10.47;;;8.60;;
8952;SDS011;4511;50.890;8.054;2023-08-12T02:36:17;10.23;;;9.23;;
8952;SDS011;4511;50.890;8.054;2023-08-12T02:38:44;10.37;;;9.37;;
8952;SDS011;4511;50.890;8.054;2023-08-12T02:41:11;9.77;;;8.77;;
8952;SDS011;4511;50.890;8.054;2023-08-12T02:43:38;13.43;;;10.17;;
8952;SDS011;4511;50.890;8.054;2023-08-12T02:46:04;13.70;;;10.53;;
8952;SDS011;4511;50.890;8.054;2023-08-12T02:48:33;11.50;;;10.23;;
8952;SDS011;4511;50.890;8.054;2023-08-12T02:51:01;13.03;;;10.53;;
8952;SDS011;4511;50.890;8.054;2023-08-12T02:53:28;10.93;;;9.70;;
8952;SDS011;4511;50.890;8.054;2023-08-12T02:55:55;11.43;;;10.23;;
8952;SDS011;4511;50.890;8.054;2023-08-12T02:58:21;14.53;;;11.70;;
8952;SDS011;4511;50.890;8.054;2023-08-12T03:00:48;17.97;;;12.83;;
8952;SDS011;4511;50.890;8.054;2023-08-12T03:03:15;13.17;;;11.73;;
8952;SDS011;4511;50.890;8.054;2023-08-12T03:05:46;16.40;;;13.90;;
8952;SDS011;4511;50.890;8.054;2023-08-12T03:08:13;14.43;;;11.97;;
8952;SDS011;4511;50.890;8.054;2023-08-12T03:10:40;12.73;;;11.27;;
8952;SDS011;4511;50.890;8.054;2023-08-12T03:13:07;14.93;;;13.17;;
8952;SDS011;4511;50.890;8.054;2023-08-12T03:15:34;14.20;;;12.40;;
8952;SDS011;4511;50.890;8.054;2023-08-12T03:18:04;14.27;;;11.90;;
8952;SDS011;4511;50.890;8.054;2023-08-12T03:20:31;14.77;;;13.13;;
8952;SDS011;4511;50.890;8.054;2023-08-12T03:22:59;14.47;;;11.60;;
8952;SDS011;4511;50.890;8.054;2023-08-12T03:25:26;11.73;;;10.63;;
8952;SDS011;4511;50.890;8.054;2023-08-12T03:27:53;15.13;;;12.37;;
8952;SDS011;4511;50.890;8.054;2023-08-12T03:30:19;16.13;;;13.50;;
8952;SDS011;4511;50.890;8.054;2023-08-12T03:32:46;18.40;;;14.33;;
8952;SDS011;4511;50.890;8.054;2023-08-12T03:35:13;13.67;;;12.23;;
8952;SDS011;4511;50.890;8.054;2023-08-12T03:37:40;12.67;;;11.50;;
8952;SDS011;4511;50.890;8.054;2023-08-12T03:40:09;15.77;;;12.43;;
8952;SDS011;4511;50.890;8.054;2023-08-12T03:42:36;14.30;;;12.90;;
8952;SDS011;4511;50.890;8.054;2023-08-12T03:45:03;14.17;;;12.33;;
8952;SDS011;4511;50.890;8.054;2023-08-12T03:47:31;13.87;;;12.53;;
8952;SDS011;4511;50.890;8.054;2023-08-12T03:49:58;14.97;;;13.40;;
8952;SDS011;4511;50.890;8.054;2023-08-12T03:52:24;16.20;;;13.87;;
8952;SDS011;4511;50.890;8.054;2023-08-12T03:54:51;12.83;;;11.63;;
8952;SDS011;4511;50.890;8.054;2023-08-12T03:57:20;15.57;;;14.07;;
8952;SDS011;4511;50.890;8.054;2023-08-12T03:59:47;16.93;;;14.07;;
8952;SDS011;4511;50.890;8.054;2023-08-12T04:02:13;16.10;;;13.80;;
8952;SDS011;4511;50.890;8.054;2023-08-12T04:04:40;20.37;;;15.50;;
8952;SDS011;4511;50.890;8.054;2023-08-12T04:07:09;17.80;;;14.77;;
8952;SDS011;4511;50.890;8.054;2023-08-12T04:09:35;17.70;;;15.53;;
8952;SDS011;4511;50.890;8.054;2023-08-12T04:12:02;16.20;;;14.30;;
8952;SDS011;4511;50.890;8.054;2023-08-12T04:14:31;13.47;;;12.07;;
8952;SDS011;4511;50.890;8.054;2023-08-12T04:16:57;14.33;;;12.40;;
8952;SDS011;4511;50.890;8.054;2023-08-12T04:19:24;13.07;;;11.87;;
8952;SDS011;4511;50.890;8.054;2023-08-12T04:21:51;11.80;;;10.70;;
8952;SDS011;4511;50.890;8.054;2023-08-12T04:24:18;14.97;;;12.00;;
8952;SDS011;4511;50.890;8.054;2023-08-12T04:26:44;13.23;;;11.93;;
8952;SDS011;4511;50.890;8.054;2023-08-12T04:29:11;13.63;;;12.03;;
8952;SDS011;4511;50.890;8.054;2023-08-12T04:31:39;15.10;;;13.63;;
8952;SDS011;4511;50.890;8.054;2023-08-12T04:34:06;19.80;;;16.83;;
8952;SDS011;4511;50.890;8.054;2023-08-12T04:36:33;21.03;;;17.13;;
8952;SDS011;4511;50.890;8.054;2023-08-12T04:39:00;16.27;;;14.60;;
8952;SDS011;4511;50.890;8.054;2023-08-12T04:41:27;16.00;;;14.20;;
8952;SDS011;4511;50.890;8.054;2023-08-12T04:43:55;14.80;;;13.37;;
8952;SDS011;4511;50.890;8.054;2023-08-12T04:46:22;15.90;;;12.47;;
8952;SDS011;4511;50.890;8.054;2023-08-12T04:48:50;16.07;;;14.43;;
8952;SDS011;4511;50.890;8.054;2023-08-12T04:51:17;17.43;;;15.63;;
8952;SDS011;4511;50.890;8.054;2023-08-12T04:53:43;16.60;;;14.90;;
8952;SDS011;4511;50.890;8.054;2023-08-12T04:56:10;18.57;;;16.57;;
8952;SDS011;4511;50.890;8.054;2023-08-12T04:58:37;146.97;;;23.37;;
8952;SDS011;4511;50.890;8.054;2023-08-12T05:01:04;24.70;;;18.50;;
8952;SDS011;4511;50.890;8.054;2023-08-12T05:03:31;19.33;;;17.20;;
8952;SDS011;4511;50.890;8.054;2023-08-12T05:05:59;18.43;;;15.37;;
8952;SDS011;4511;50.890;8.054;2023-08-12T05:08:25;16.33;;;14.60;;
8952;SDS011;4511;50.890;8.054;2023-08-12T05:10:52;16.87;;;15.10;;
8952;SDS011;4511;50.890;8.054;2023-08-12T05:13:19;16.50;;;14.87;;
8952;SDS011;4511;50.890;8.054;2023-08-12T05:15:48;15.87;;;14.17;;
8952;SDS011;4511;50.890;8.054;2023-08-12T05:18:15;16.53;;;14.73;;
8952;SDS011;4511;50.890;8.054;2023-08-12T05:20:42;15.10;;;13.60;;
8952;SDS011;4511;50.890;8.054;2023-08-12T05:23:10;16.23;;;14.63;;
8952;SDS011;4511;50.890;8.054;2023-08-12T05:25:38;14.50;;;13.00;;
8952;SDS011;4511;50.890;8.054;2023-08-12T05:28:05;14.80;;;13.30;;
8952;SDS011;4511;50.890;8.054;2023-08-12T05:30:33;14.67;;;13.20;;
8952;SDS011;4511;50.890;8.054;2023-08-12T05:33:00;14.03;;;12.60;;
8952;SDS011;4511;50.890;8.054;2023-08-12T05:35:27;15.67;;;14.10;;
8952;SDS011;4511;50.890;8.054;2023-08-12T05:37:54;13.63;;;12.23;;
8952;SDS011;4511;50.890;8.054;2023-08-12T05:40:22;14.37;;;12.90;;
8952;SDS011;4511;50.890;8.054;2023-08-12T05:42:49;14.57;;;13.17;;
8952;SDS011;4511;50.890;8.054;2023-08-12T05:45:16;14.23;;;12.93;;
8952;SDS011;4511;50.890;8.054;2023-08-12T05:47:43;14.27;;;12.77;;
8952;SDS011;4511;50.890;8.054;2023-08-12T05:50:10;15.17;;;13.67;;
8952;SDS011;4511;50.890;8.054;2023-08-12T05:52:36;13.20;;;12.00;;
8952;SDS011;4511;50.890;8.054;2023-08-12T05:55:04;16.33;;;12.67;;
8952;SDS011;4511;50.890;8.054;2023-08-12T05:57:32;12.07;;;10.97;;
8952;SDS011;4511;50.890;8.054;2023-08-12T05:59:59;12.07;;;11.03;;
8952;SDS011;4511;50.890;8.054;2023-08-12T06:02:26;13.03;;;11.87;;
8952;SDS011;4511;50.890;8.054;2023-08-12T06:04:53;13.97;;;12.60;;
8952;SDS011;4511;50.890;8.054;2023-08-12T06:07:20;12.93;;;11.73;;
8952;SDS011;4511;50.890;8.054;2023-08-12T06:09:48;12.83;;;11.63;;
8952;SDS011;4511;50.890;8.054;2023-08-12T06:12:15;12.00;;;10.90;;
8952;SDS011;4511;50.890;8.054;2023-08-12T06:14:43;10.70;;;9.70;;
8952;SDS011;4511;50.890;8.054;2023-08-12T06:17:10;12.03;;;10.93;;
8952;SDS011;4511;50.890;8.054;2023-08-12T06:19:37;10.33;;;9.43;;
8952;SDS011;4511;50.890;8.054;2023-08-12T06:22:04;9.93;;;8.93;;
8952;SDS011;4511;50.890;8.054;2023-08-12T06:24:30;9.57;;;8.73;;
8952;SDS011;4511;50.890;8.054;2023-08-12T06:26:57;10.67;;;9.70;;
8952;SDS011;4511;50.890;8.054;2023-08-12T06:29:24;9.77;;;8.87;;
8952;SDS011;4511;50.890;8.054;2023-08-12T06:31:52;10.07;;;9.07;;
8952;SDS011;4511;50.890;8.054;2023-08-12T06:34:20;8.87;;;8.07;;
8952;SDS011;4511;50.890;8.054;2023-08-12T06:36:46;8.80;;;8.00;;
8952;SDS011;4511;50.890;8.054;2023-08-12T06:39:13;9.90;;;9.00;;
8952;SDS011;4511;50.890;8.054;2023-08-12T06:41:40;9.80;;;8.90;;
8952;SDS011;4511;50.890;8.054;2023-08-12T06:44:07;9.23;;;8.33;;
8952;SDS011;4511;50.890;8.054;2023-08-12T06:46:34;9.10;;;8.30;;
8952;SDS011;4511;50.890;8.054;2023-08-12T06:49:02;8.13;;;7.43;;
8952;SDS011;4511;50.890;8.054;2023-08-12T06:51:29;9.93;;;9.00;;
8952;SDS011;4511;50.890;8.054;2023-08-12T06:53:56;9.60;;;8.80;;
8952;SDS011;4511;50.890;8.054;2023-08-12T06:56:22;11.53;;;10.33;;
8952;SDS011;4511;50.890;8.054;2023-08-12T06:58:49;12.00;;;10.90;;
8952;SDS011;4511;50.890;8.054;2023-08-12T07:01:16;11.73;;;10.73;;
8952;SDS011;4511;50.890;8.054;2023-08-12T07:03:43;12.80;;;11.53;;
8952;SDS011;4511;50.890;8.054;2023-08-12T07:06:11;12.33;;;11.10;;
8952;SDS011;4511;50.890;8.054;2023-08-12T07:08:38;13.07;;;11.90;;
8952;SDS011;4511;50.890;8.054;2023-08-12T07:11:05;12.43;;;11.23;;
8952;SDS011;4511;50.890;8.054;2023-08-12T07:13:31;14.10;;;12.80;;
8952;SDS011;4511;50.890;8.054;2023-08-12T07:15:58;15.43;;;13.87;;
8952;SDS011;4511;50.890;8.054;2023-08-12T07:18:25;15.70;;;13.00;;
8952;SDS011;4511;50.890;8.054;2023-08-12T07:20:53;13.40;;;12.07;;
8952;SDS011;4511;50.890;8.054;2023-08-12T07:23:22;12.60;;;11.40;;
8952;SDS011;4511;50.890;8.054;2023-08-12T07:25:48;14.50;;;10.47;;
8952;SDS011;4511;50.890;8.054;2023-08-12T07:28:15;11.27;;;9.67;;
8952;SDS011;4511;50.890;8.054;2023-08-12T07:30:42;7.83;;;7.00;;
8952;SDS011;4511;50.890;8.054;2023-08-12T07:33:09;5.47;;;5.07;;
8952;SDS011;4511;50.890;8.054;2023-08-12T07:35:36;5.87;;;5.30;;
8952;SDS011;4511;50.890;8.054;2023-08-12T07:38:03;6.27;;;5.50;;
8952;SDS011;4511;50.890;8.054;2023-08-12T07:40:31;5.30;;;4.80;;
8952;SDS011;4511;50.890;8.054;2023-08-12T07:42:58;4.80;;;4.40;;
8952;SDS011;4511;50.890;8.054;2023-08-12T07:45:25;4.73;;;4.23;;
8952;SDS011;4511;50.890;8.054;2023-08-12T07:47:52;5.30;;;4.80;;
8952;SDS011;4511;50.890;8.054;2023-08-12T07:50:19;5.53;;;4.47;;
8952;SDS011;4511;50.890;8.054;2023-08-12T07:52:46;5.00;;;4.60;;
8952;SDS011;4511;50.890;8.054;2023-08-12T07:55:13;5.17;;;4.60;;
8952;SDS011;4511;50.890;8.054;2023-08-12T07:57:42;5.80;;;5.00;;
8952;SDS011;4511;50.890;8.054;2023-08-12T08:00:09;5.80;;;5.30;;
8952;SDS011;4511;50.890;8.054;2023-08-12T08:02:37;4.73;;;4.33;;
8952;SDS011;4511;50.890;8.054;2023-08-12T08:05:04;5.13;;;4.67;;
8952;SDS011;4511;50.890;8.054;2023-08-12T08:07:32;4.13;;;3.83;;
8952;SDS011;4511;50.890;8.054;2023-08-12T08:09:59;5.13;;;3.80;;
8952;SDS011;4511;50.890;8.054;2023-08-12T08:12:25;4.07;;;3.77;;
8952;SDS011;4511;50.890;8.054;2023-08-12T08:14:53;4.30;;;3.93;;
8952;SDS011;4511;50.890;8.054;2023-08-12T08:17:20;3.80;;;3.50;;
8952;SDS011;4511;50.890;8.054;2023-08-12T08:19:47;4.60;;;4.20;;
8952;SDS011;4511;50.890;8.054;2023-08-12T08:22:15;6.00;;;4.43;;
8952;SDS011;4511;50.890;8.054;2023-08-12T08:24:43;4.27;;;3.87;;
8952;SDS011;4511;50.890;8.054;2023-08-12T08:27:09;4.13;;;3.73;;
8952;SDS011;4511;50.890;8.054;2023-08-12T08:29:38;4.23;;;3.93;;
8952;SDS011;4511;50.890;8.054;2023-08-12T08:32:06;3.90;;;3.50;;
8952;SDS011;4511;50.890;8.054;2023-08-12T08:34:33;3.60;;;3.30;;
8952;SDS011;4511;50.890;8.054;2023-08-12T08:37:00;3.40;;;3.20;;
8952;SDS011;4511;50.890;8.054;2023-08-12T08:39:27;3.20;;;2.80;;
8952;SDS011;4511;50.890;8.054;2023-08-12T08:41:54;5.17;;;3.20;;
8952;SDS011;4511;50.890;8.054;2023-08-12T08:44:22;3.17;;;2.90;;
8952;SDS011;4511;50.890;8.054;2023-08-12T08:46:49;3.37;;;3.07;;
8952;SDS011;4511;50.890;8.054;2023-08-12T08:49:20;3.03;;;2.80;;
8952;SDS011;4511;50.890;8.054;2023-08-12T08:51:47;3.10;;;2.80;;
8952;SDS011;4511;50.890;8.054;2023-08-12T08:54:14;2.90;;;2.50;;
8952;SDS011;4511;50.890;8.054;2023-08-12T08:56:41;2.40;;;2.30;;
8952;SDS011;4511;50.890;8.054;2023-08-12T08:59:08;2.87;;;2.57;;
8952;SDS011;4511;50.890;8.054;2023-08-12T09:01:35;2.43;;;2.23;;
8952;SDS011;4511;50.890;8.054;2023-08-12T09:04:04;2.80;;;2.60;;
8952;SDS011;4511;50.890;8.054;2023-08-12T09:06:34;2.97;;;2.77;;
8952;SDS011;4511;50.890;8.054;2023-08-12T09:09:05;3.20;;;2.90;;
8952;SDS011;4511;50.890;8.054;2023-08-12T09:11:35;3.00;;;2.80;;
8952;SDS011;4511;50.890;8.054;2023-08-12T09:14:05;4.07;;;2.60;;
8952;SDS011;4511;50.890;8.054;2023-08-12T09:16:32;3.00;;;2.80;;
8952;SDS011;4511;50.890;8.054;2023-08-12T09:18:59;3.53;;;2.63;;
8952;SDS011;4511;50.890;8.054;2023-08-12T09:21:26;3.07;;;2.50;;
8952;SDS011;4511;50.890;8.054;2023-08-12T09:23:54;2.63;;;2.33;;
8952;SDS011;4511;50.890;8.054;2023-08-12T09:26:21;3.60;;;3.10;;
8952;SDS011;4511;50.890;8.054;2023-08-12T09:28:48;3.70;;;3.37;;
8952;SDS011;4511;50.890;8.054;2023-08-12T09:31:21;2.80;;;2.60;;
8952;SDS011;4511;50.890;8.054;2023-08-12T09:33:50;2.90;;;2.70;;
8952;SDS011;4511;50.890;8.054;2023-08-12T09:36:20;2.23;;;2.13;;
8952;SDS011;4511;50.890;8.054;2023-08-12T09:38:48;3.00;;;2.40;;
8952;SDS011;4511;50.890;8.054;2023-08-12T09:41:16;2.80;;;2.50;;
8952;SDS011;4511;50.890;8.054;2023-08-12T09:43:44;3.00;;;2.70;;
8952;SDS011;4511;50.890;8.054;2023-08-12T09:46:11;2.70;;;2.50;;
8952;SDS011;4511;50.890;8.054;2023-08-12T09:48:40;2.60;;;2.40;;
8952;SDS011;4511;50.890;8.054;2023-08-12T09:51:07;3.87;;;2.73;;
8952;SDS011;4511;50.890;8.054;2023-08-12T09:53:35;2.50;;;2.30;;
8952;SDS011;4511;50.890;8.054;2023-08-12T09:56:04;2.23;;;2.13;;
8952;SDS011;4511;50.890;8.054;2023-08-12T09:58:34;3.03;;;2.60;;
8952;SDS011;4511;50.890;8.054;2023-08-12T10:01:02;3.07;;;2.30;;
8952;SDS011;4511;50.890;8.054;2023-08-12T10:03:33;2.50;;;2.10;;
8952;SDS011;4511;50.890;8.054;2023-08-12T10:06:01;4.03;;;2.30;;
8952;SDS011;4511;50.890;8.054;2023-08-12T10:08:28;3.93;;;2.30;;
8952;SDS011;4511;50.890;8.054;2023-08-12T10:10:56;2.30;;;2.10;;
8952;SDS011;4511;50.890;8.054;2023-08-12T10:13:23;2.67;;;2.47;;
8952;SDS011;4511;50.890;8.054;2023-08-12T10:15:52;2.30;;;2.10;;
8952;SDS011;4511;50.890;8.054;2023-08-12T10:18:19;2.40;;;2.20;;
8952;SDS011;4511;50.890;8.054;2023-08-12T10:20:48;2.50;;;2.20;;
8952;SDS011;4511;50.890;8.054;2023-08-12T10:23:16;2.50;;;2.30;;
8952;SDS011;4511;50.890;8.054;2023-08-12T10:25:44;2.33;;;2.13;;
8952;SDS011;4511;50.890;8.054;2023-08-12T10:28:11;3.20;;;2.17;;
8952;SDS011;4511;50.890;8.054;2023-08-12T10:30:39;2.03;;;1.87;;
8952;SDS011;4511;50.890;8.054;2023-08-12T10:33:08;2.27;;;2.07;;
8952;SDS011;4511;50.890;8.054;2023-08-12T10:35:45;2.20;;;2.00;;
8952;SDS011;4511;50.890;8.054;2023-08-12T10:38:13;2.40;;;2.20;;
8952;SDS011;4511;50.890;8.054;2023-08-12T10:40:43;1.90;;;1.80;;
8952;SDS011;4511;50.890;8.054;2023-08-12T10:43:11;2.13;;;1.90;;
8952;SDS011;4511;50.890;8.054;2023-08-12T10:45:42;2.33;;;2.13;;
8952;SDS011;4511;50.890;8.054;2023-08-12T10:48:17;3.33;;;2.20;;
8952;SDS011;4511;50.890;8.054;2023-08-12T10:50:46;3.60;;;1.90;;
8952;SDS011;4511;50.890;8.054;2023-08-12T10:53:25;4.70;;;1.93;;
8952;SDS011;4511;50.890;8.054;2023-08-12T10:55:56;1.90;;;1.80;;
8952;SDS011;4511;50.890;8.054;2023-08-12T10:58:26;2.33;;;1.70;;
8952;SDS011;4511;50.890;8.054;2023-08-12T11:00:54;2.40;;;1.90;;
8952;SDS011;4511;50.890;8.054;2023-08-12T11:03:22;2.23;;;1.70;;
8952;SDS011;4511;50.890;8.054;2023-08-12T11:05:52;1.77;;;1.67;;
8952;SDS011;4511;50.890;8.054;2023-08-12T11:08:24;2.97;;;1.70;;
8952;SDS011;4511;50.890;8.054;2023-08-12T11:10:54;3.10;;;1.70;;
8952;SDS011;4511;50.890;8.054;2023-08-12T11:13:22;2.10;;;1.90;;
8952;SDS011;4511;50.890;8.054;2023-08-12T11:15:49;3.00;;;1.90;;
8952;SDS011;4511;50.890;8.054;2023-08-12T11:18:17;2.70;;;2.00;;
8952;SDS011;4511;50.890;8.054;2023-08-12T11:20:49;2.07;;;1.87;;
8952;SDS011;4511;50.890;8.054;2023-08-12T11:23:16;2.30;;;2.10;;
8952;SDS011;4511;50.890;8.054;2023-08-12T11:25:45;2.17;;;2.03;;
8952;SDS011;4511;50.890;8.054;2023-08-12T11:28:15;3.13;;;2.13;;
8952;SDS011;4511;50.890;8.054;2023-08-12T11:30:44;2.67;;;2.30;;
8952;SDS011;4511;50.890;8.054;2023-08-12T11:33:11;2.73;;;1.93;;
8952;SDS011;4511;50.890;8.054;2023-08-12T11:35:38;2.23;;;2.03;;
8952;SDS011;4511;50.890;8.054;2023-08-12T11:38:07;2.30;;;2.10;;
8952;SDS011;4511;50.890;8.054;2023-08-12T11:40:35;2.70;;;2.00;;
8952;SDS011;4511;50.890;8.054;2023-08-12T11:43:02;2.20;;;2.00;;
8952;SDS011;4511;50.890;8.054;2023-08-12T11:45:29;3.00;;;2.20;;
8952;SDS011;4511;50.890;8.054;2023-08-12T11:47:57;2.57;;;2.30;;
8952;SDS011;4511;50.890;8.054;2023-08-12T11:50:24;2.40;;;2.20;;
8952;SDS011;4511;50.890;8.054;2023-08-12T11:52:52;2.30;;;2.10;;
8952;SDS011;4511;50.890;8.054;2023-08-12T11:55:22;4.80;;;2.10;;
8952;SDS011;4511;50.890;8.054;2023-08-12T11:57:49;5.00;;;2.80;;
8952;SDS011;4511;50.890;8.054;2023-08-12T12:00:17;3.30;;;2.50;;
8952;SDS011;4511;50.890;8.054;2023-08-12T12:02:46;3.20;;;2.00;;
8952;SDS011;4511;50.890;8.054;2023-08-12T12:05:15;4.23;;;2.50;;
8952;SDS011;4511;50.890;8.054;2023-08-12T12:07:42;2.60;;;2.40;;
8952;SDS011;4511;50.890;8.054;2023-08-12T12:10:12;3.13;;;2.40;;
8952;SDS011;4511;50.890;8.054;2023-08-12T12:12:43;3.63;;;2.20;;
8952;SDS011;4511;50.890;8.054;2023-08-12T12:15:12;3.00;;;2.70;;
8952;SDS011;4511;50.890;8.054;2023-08-12T12:17:40;2.43;;;2.23;;
8952;SDS011;4511;50.890;8.054;2023-08-12T12:20:07;2.97;;;2.40;;
8952;SDS011;4511;50.890;8.054;2023-08-12T12:22:36;2.80;;;2.40;;
8952;SDS011;4511;50.890;8.054;2023-08-12T12:25:06;4.80;;;2.40;;
8952;SDS011;4511;50.890;8.054;2023-08-12T12:27:34;2.40;;;2.20;;
8952;SDS011;4511;50.890;8.054;2023-08-12T12:30:02;3.70;;;2.60;;
8952;SDS011;4511;50.890;8.054;2023-08-12T12:32:29;2.50;;;2.30;;
8952;SDS011;4511;50.890;8.054;2023-08-12T12:34:56;5.97;;;2.73;;
8952;SDS011;4511;50.890;8.054;2023-08-12T12:37:23;3.57;;;2.40;;
8952;SDS011;4511;50.890;8.054;2023-08-12T12:39:49;3.37;;;2.20;;
8952;SDS011;4511;50.890;8.054;2023-08-12T12:42:16;3.67;;;2.60;;
8952;SDS011;4511;50.890;8.054;2023-08-12T12:44:43;2.37;;;2.20;;
8952;SDS011;4511;50.890;8.054;2023-08-12T12:47:11;2.70;;;2.27;;
8952;SDS011;4511;50.890;8.054;2023-08-12T12:49:38;3.03;;;2.13;;
8952;SDS011;4511;50.890;8.054;2023-08-12T12:52:06;3.20;;;2.20;;
8952;SDS011;4511;50.890;8.054;2023-08-12T12:54:33;3.47;;;2.30;;
8952;SDS011;4511;50.890;8.054;2023-08-12T12:57:00;2.90;;;2.10;;
8952;SDS011;4511;50.890;8.054;2023-08-12T12:59:27;2.40;;;2.20;;
8952;SDS011;4511;50.890;8.054;2023-08-12T13:01:53;4.37;;;2.20;;
8952;SDS011;4511;50.890;8.054;2023-08-12T13:04:21;2.83;;;2.23;;
8952;SDS011;4511;50.890;8.054;2023-08-12T13:06:48;2.40;;;2.20;;
8952;SDS011;4511;50.890;8.054;2023-08-12T13:09:15;3.07;;;2.40;;
8952;SDS011;4511;50.890;8.054;2023-08-12T13:11:42;3.00;;;2.20;;
8952;SDS011;4511;50.890;8.054;2023-08-12T13:14:09;2.63;;;1.90;;
8952;SDS011;4511;50.890;8.054;2023-08-12T13:16:35;2.53;;;2.23;;
8952;SDS011;4511;50.890;8.054;2023-08-12T13:19:02;2.50;;;2.30;;
8952;SDS011;4511;50.890;8.054;2023-08-12T13:21:31;3.60;;;2.43;;
8952;SDS011;4511;50.890;8.054;2023-08-12T13:23:58;3.70;;;2.50;;
8952;SDS011;4511;50.890;8.054;2023-08-12T13:26:26;2.30;;;2.20;;
8952;SDS011;4511;50.890;8.054;2023-08-12T13:28:53;2.73;;;2.47;;
8952;SDS011;4511;50.890;8.054;2023-08-12T13:31:20;2.43;;;2.23;;
8952;SDS011;4511;50.890;8.054;2023-08-12T13:33:46;3.67;;;2.43;;
8952;SDS011;4511;50.890;8.054;2023-08-12T13:36:13;3.90;;;2.40;;
8952;SDS011;4511;50.890;8.054;2023-08-12T13:38:42;5.73;;;2.23;;
8952;SDS011;4511;50.890;8.054;2023-08-12T13:41:08;3.43;;;2.43;;
8952;SDS011;4511;50.890;8.054;2023-08-12T13:43:35;3.13;;;2.30;;
8952;SDS011;4511;50.890;8.054;2023-08-12T13:46:02;2.93;;;2.60;;
8952;SDS011;4511;50.890;8.054;2023-08-12T13:48:29;3.13;;;2.30;;
8952;SDS011;4511;50.890;8.054;2023-08-12T13:50:56;4.77;;;2.83;;
8952;SDS011;4511;50.890;8.054;2023-08-12T13:53:23;2.60;;;2.40;;
8952;SDS011;4511;50.890;8.054;2023-08-12T13:55:51;2.53;;;2.33;;
8952;SDS011;4511;50.890;8.054;2023-08-12T13:58:18;3.00;;;2.70;;
8952;SDS011;4511;50.890;8.054;2023-08-12T14:00:45;3.00;;;2.00;;
8952;SDS011;4511;50.890;8.054;2023-08-12T14:03:11;2.50;;;2.30;;
8952;SDS011;4511;50.890;8.054;2023-08-12T14:05:38;3.00;;;2.70;;
8952;SDS011;4511;50.890;8.054;2023-08-12T14:08:05;2.50;;;2.30;;
8952;SDS011;4511;50.890;8.054;2023-08-12T14:10:32;3.50;;;2.47;;
8952;SDS011;4511;50.890;8.054;2023-08-12T14:13:00;4.70;;;2.57;;
8952;SDS011;4511;50.890;8.054;2023-08-12T14:15:27;3.97;;;2.70;;
8952;SDS011;4511;50.890;8.054;2023-08-12T14:17:54;2.90;;;2.53;;
8952;SDS011;4511;50.890;8.054;2023-08-12T14:20:20;2.70;;;2.50;;
8952;SDS011;4511;50.890;8.054;2023-08-12T14:22:47;2.90;;;2.70;;
8952;SDS011;4511;50.890;8.054;2023-08-12T14:25:14;5.27;;;2.60;;
8952;SDS011;4511;50.890;8.054;2023-08-12T14:27:41;3.30;;;2.70;;
8952;SDS011;4511;50.890;8.054;2023-08-12T14:30:10;5.13;;;2.60;;
8952;SDS011;4511;50.890;8.054;2023-08-12T14:32:37;2.90;;;2.63;;
8952;SDS011;4511;50.890;8.054;2023-08-12T14:35:04;5.30;;;2.77;;
8952;SDS011;4511;50.890;8.054;2023-08-12T14:37:32;3.13;;;2.90;;
8952;SDS011;4511;50.890;8.054;2023-08-12T14:39:58;2.97;;;2.60;;
8952;SDS011;4511;50.890;8.054;2023-08-12T14:42:25;2.50;;;2.30;;
8952;SDS011;4511;50.890;8.054;2023-08-12T14:44:52;2.90;;;2.70;;
8952;SDS011;4511;50.890;8.054;2023-08-12T14:47:20;4.63;;;2.30;;
8952;SDS011;4511;50.890;8.054;2023-08-12T14:49:47;3.80;;;2.37;;
8952;SDS011;4511;50.890;8.054;2023-08-12T14:52:15;3.50;;;2.80;;
8952;SDS011;4511;50.890;8.054;2023-08-12T14:54:43;3.03;;;2.40;;
8952;SDS011;4511;50.890;8.054;2023-08-12T14:57:10;2.63;;;2.37;;
8952;SDS011;4511;50.890;8.054;2023-08-12T14:59:37;3.07;;;2.30;;
8952;SDS011;4511;50.890;8.054;2023-08-12T15:02:04;3.63;;;2.10;;
8952;SDS011;4511;50.890;8.054;2023-08-12T15:04:32;4.53;;;2.27;;
8952;SDS011;4511;50.890;8.054;2023-08-12T15:07:00;2.60;;;2.37;;
8952;SDS011;4511;50.890;8.054;2023-08-12T15:09:27;4.13;;;2.30;;